createdAt,value
2023-03-16T00:00:09.757Z,100678.47
2023-03-16T00:02:36.852Z,100681.91
2023-03-16T00:05:04.265Z,100682.72
2023-03-16T00:07:31.413Z,100683.19
2023-03-16T00:09:58.546Z,100688.38
2023-03-16T00:12:26.473Z,100692.38
2023-03-16T00:14:54.467Z,100688.03
2023-03-16T00:17:21.905Z,100688.88
2023-03-16T00:19:55.506Z,100680.97
2023-03-16T00:22:28.709Z,100686.19
2023-03-16T00:24:56.430Z,100693.78
2023-03-16T00:27:25.993Z,100686.88
2023-03-16T00:29:57.195Z,100692.00
2023-03-16T00:32:27.414Z,100689.44
2023-03-16T00:34:54.416Z,100693.47
2023-03-16T00:37:23.895Z,100688.44
2023-03-16T00:39:52.578Z,100686.69
2023-03-16T00:42:20.522Z,100692.66
2023-03-16T00:44:47.896Z,100684.84
2023-03-16T00:47:15.416Z,100700.28
2023-03-16T00:49:44.256Z,100700.03
2023-03-16T00:52:16.340Z,100704.94
2023-03-16T00:54:45.272Z,100699.84
2023-03-16T00:57:14.991Z,100700.88
2023-03-16T00:59:42.601Z,100699.38
2023-03-16T01:02:11.794Z,100701.91
2023-03-16T01:04:40.300Z,100706.31
2023-03-16T01:07:12.778Z,100708.03
2023-03-16T01:09:41.213Z,100706.41
2023-03-16T01:12:15.171Z,100704.81
2023-03-16T01:14:46.036Z,100706.53
2023-03-16T01:17:14.174Z,100711.78
2023-03-16T01:19:42.101Z,100709.91
2023-03-16T01:22:11.897Z,100720.94
2023-03-16T01:24:40.132Z,100718.34
2023-03-16T01:27:07.881Z,100710.66
2023-03-16T01:29:35.424Z,100713.38
2023-03-16T01:32:02.781Z,100715.22
2023-03-16T01:34:30.297Z,100715.22
2023-03-16T01:36:57.696Z,100727.16
2023-03-16T01:39:28.138Z,100719.44
2023-03-16T01:41:55.174Z,100714.97
2023-03-16T01:44:30.709Z,100725.41
2023-03-16T01:47:03.617Z,100721.94
2023-03-16T01:49:34.263Z,100728.66
2023-03-16T01:52:10.326Z,100728.53
2023-03-16T01:54:46.316Z,100730.91
2023-03-16T01:57:20.239Z,100730.91
2023-03-16T01:59:53.917Z,100732.69
2023-03-16T02:02:27.377Z,100729.16
2023-03-16T02:05:27.153Z,100740.19
2023-03-16T02:07:58.906Z,100748.72
2023-03-16T02:10:29.385Z,100753.81
2023-03-16T02:12:58.213Z,100755.47
2023-03-16T02:15:25.909Z,100759.69
2023-03-16T02:17:53.193Z,100756.09
2023-03-16T02:20:44.301Z,100750.25
2023-03-16T02:23:18.715Z,100758.69
2023-03-16T02:25:57.818Z,100753.59
2023-03-16T02:28:42.841Z,100747.72
2023-03-16T02:31:10.529Z,100740.06
2023-03-16T02:33:37.798Z,100745.16
2023-03-16T02:36:07.352Z,100739.13
2023-03-16T02:38:34.511Z,100748.69
2023-03-16T02:41:19.296Z,100745.16
2023-03-16T02:44:14.818Z,100737.25
2023-03-16T02:46:44.142Z,100746.66
2023-03-16T02:49:27.861Z,100747.63
2023-03-16T02:51:55.106Z,100751.75
2023-03-16T02:54:22.238Z,100753.47
2023-03-16T02:56:49.388Z,100756.84
2023-03-16T02:59:16.773Z,100755.06
2023-03-16T03:01:43.886Z,100760.16
2023-03-16T03:04:11.127Z,100760.16
2023-03-16T03:06:38.355Z,100752.59
2023-03-16T03:09:06.388Z,100750.72
2023-03-16T03:11:33.702Z,100756.72
2023-03-16T03:14:00.743Z,100756.56
2023-03-16T03:16:28.448Z,100754.94
2023-03-16T03:18:56.978Z,100756.56
2023-03-16T03:21:24.389Z,100754.22
2023-03-16T03:23:51.947Z,100757.94
2023-03-16T03:26:20.050Z,100767.25
2023-03-16T03:28:48.321Z,100766.50
2023-03-16T03:31:22.158Z,100768.97
2023-03-16T03:33:51.137Z,100768.97
2023-03-16T03:36:18.297Z,100765.63
2023-03-16T03:38:46.456Z,100769.09
2023-03-16T03:41:13.550Z,100764.78
2023-03-16T03:43:41.231Z,100765.75
2023-03-16T03:46:13.806Z,100770.72
2023-03-16T03:48:41.298Z,100765.53
2023-03-16T03:51:08.344Z,100768.84
2023-03-16T03:53:47.129Z,100775.53
2023-03-16T03:56:14.333Z,100770.34
2023-03-16T03:58:41.569Z,100763.41
2023-03-16T04:01:09.698Z,100770.34
2023-03-16T04:03:36.926Z,100776.25
2023-03-16T04:06:08.207Z,100776.25
2023-03-16T04:08:36.139Z,100768.38
2023-03-16T04:11:04.585Z,100743.00
2023-03-16T04:13:31.715Z,100787.09
2023-03-16T04:16:05.245Z,100785.97
2023-03-16T04:18:39.579Z,100790.31
2023-03-16T04:21:14.175Z,100786.84
2023-03-16T04:23:42.728Z,100791.94
2023-03-16T04:26:10.878Z,100788.44
2023-03-16T04:28:38.146Z,100796.28
2023-03-16T04:31:07.600Z,100797.13
2023-03-16T04:33:40.298Z,100804.03
2023-03-16T04:36:07.728Z,100797.13
2023-03-16T04:38:37.047Z,100797.13
2023-03-16T04:41:05.901Z,100799.63
2023-03-16T04:43:40.655Z,100796.22
2023-03-16T04:46:14.891Z,100792.75
2023-03-16T04:48:42.078Z,100796.16
2023-03-16T04:51:09.511Z,100796.06
2023-03-16T04:53:40.482Z,100792.75
2023-03-16T04:56:19.903Z,100798.63
2023-03-16T04:58:53.837Z,100800.25
2023-03-16T05:01:23.967Z,100802.84
2023-03-16T05:03:54.787Z,100803.66
2023-03-16T05:06:22.541Z,100802.78
2023-03-16T05:08:49.904Z,100803.56
2023-03-16T05:11:17.416Z,100799.22
2023-03-16T05:13:54.871Z,100797.50
2023-03-16T05:16:22.519Z,100797.63
2023-03-16T05:18:50.577Z,100800.25
2023-03-16T05:21:17.714Z,100808.66
2023-03-16T05:23:57.858Z,100808.66
2023-03-16T05:26:27.899Z,100800.25
2023-03-16T05:28:56.098Z,100802.84
2023-03-16T05:31:29.067Z,100809.72
2023-03-16T05:33:59.897Z,100807.19
2023-03-16T05:36:27.196Z,100803.56
2023-03-16T05:38:59.592Z,100801.16
2023-03-16T05:41:32.240Z,100809.31
2023-03-16T05:44:04.730Z,100803.50
2023-03-16T05:46:52.134Z,100808.44
2023-03-16T05:49:19.385Z,100813.53
2023-03-16T05:51:46.672Z,100816.03
2023-03-16T05:54:14.158Z,100817.50
2023-03-16T05:56:45.113Z,100821.00
2023-03-16T05:59:12.156Z,100818.50
2023-03-16T06:01:40.415Z,100807.69
2023-03-16T06:04:08.183Z,100809.44
2023-03-16T06:06:39.904Z,100819.03
2023-03-16T06:09:14.270Z,100816.59
2023-03-16T06:11:42.267Z,100825.28
2023-03-16T06:14:09.563Z,100820.19
2023-03-16T06:16:37.213Z,100827.06
2023-03-16T06:19:04.381Z,100829.59
2023-03-16T06:21:33.351Z,100828.88
2023-03-16T06:24:09.454Z,100833.88
2023-03-16T06:26:37.806Z,100832.16
2023-03-16T06:29:08.005Z,100843.34
2023-03-16T06:31:37.433Z,100820.19
2023-03-16T06:34:05.313Z,100835.97
2023-03-16T06:36:32.487Z,100834.22
2023-03-16T06:39:01.719Z,100839.41
2023-03-16T06:41:34.961Z,100838.75
2023-03-16T06:44:03.068Z,100837.94
2023-03-16T06:46:30.492Z,100844.06
2023-03-16T06:49:01.151Z,100818.94
2023-03-16T06:51:28.546Z,100844.38
2023-03-16T06:53:55.712Z,100846.88
2023-03-16T06:56:23.378Z,100842.78
2023-03-16T06:58:50.516Z,100847.31
2023-03-16T07:01:17.970Z,100846.03
2023-03-16T07:03:45.180Z,100850.09
2023-03-16T07:06:20.705Z,100846.28
2023-03-16T07:08:47.861Z,100853.28
2023-03-16T07:11:15.383Z,100856.09
2023-03-16T07:13:42.590Z,100854.56
2023-03-16T07:16:10.547Z,100856.41
2023-03-16T07:18:40.087Z,100863.47
2023-03-16T07:21:10.984Z,100864.63
2023-03-16T07:23:38.961Z,100860.28
2023-03-16T07:26:08.458Z,100870.75
2023-03-16T07:28:39.803Z,100875.94
2023-03-16T07:31:07.500Z,100876.91
2023-03-16T07:33:39.303Z,100877.88
2023-03-16T07:36:10.973Z,100885.13
2023-03-16T07:38:44.168Z,100887.00
2023-03-16T07:41:12.726Z,100889.56
2023-03-16T07:43:41.076Z,100892.28
2023-03-16T07:46:13.962Z,100897.50
2023-03-16T07:48:45.181Z,100893.91
2023-03-16T07:51:14.074Z,100899.00
2023-03-16T07:53:43.424Z,100903.94
2023-03-16T07:56:47.428Z,100898.72
2023-03-16T07:59:24.063Z,100900.78
2023-03-16T08:01:51.312Z,100889.91
2023-03-16T08:04:18.501Z,100899.56
2023-03-16T08:06:46.216Z,100901.28
2023-03-16T08:09:14.619Z,100895.97
2023-03-16T08:11:42.112Z,100902.88
2023-03-16T08:14:09.345Z,100898.41
2023-03-16T08:16:58.423Z,100909.31
2023-03-16T08:19:27.700Z,100887.34
2023-03-16T08:22:01.775Z,100903.09
2023-03-16T08:24:36.143Z,100897.53
2023-03-16T08:27:04.910Z,100907.41
2023-03-16T08:29:34.745Z,100905.81
2023-03-16T08:32:03.906Z,100895.34
2023-03-16T08:34:40.169Z,100898.13
2023-03-16T08:37:10.015Z,100893.63
2023-03-16T08:39:37.268Z,100897.19
2023-03-16T08:42:09.208Z,100902.34
2023-03-16T08:44:44.311Z,100900.19
2023-03-16T08:47:12.331Z,100906.69
2023-03-16T08:49:42.730Z,100910.38
2023-03-16T08:52:13.554Z,100908.81
2023-03-16T08:54:49.739Z,100907.38
2023-03-16T08:57:23.716Z,100909.34
2023-03-16T08:59:51.598Z,100903.56
2023-03-16T09:02:18.903Z,100907.06
2023-03-16T09:04:46.285Z,100909.19
2023-03-16T09:07:13.810Z,100912.22
2023-03-16T09:09:41.045Z,100910.63
2023-03-16T09:12:08.687Z,100914.06
2023-03-16T09:14:37.861Z,100917.34
2023-03-16T09:17:05.434Z,100923.34
2023-03-16T09:19:50.095Z,100926.31
2023-03-16T09:22:18.596Z,100932.13
2023-03-16T09:24:45.903Z,100929.25
2023-03-16T09:27:13.360Z,100925.38
2023-03-16T09:29:41.341Z,100932.03
2023-03-16T09:32:09.817Z,100937.59
2023-03-16T09:34:37.020Z,100943.09
2023-03-16T09:37:04.624Z,100917.56
2023-03-16T09:39:32.271Z,100945.94
2023-03-16T09:42:13.312Z,100941.94
2023-03-16T09:44:52.613Z,100946.16
2023-03-16T09:47:27.563Z,100947.19
2023-03-16T09:49:58.784Z,100942.09
2023-03-16T09:52:35.504Z,100945.50
2023-03-16T09:55:36.876Z,100955.88
2023-03-16T09:58:10.985Z,100963.78
2023-03-16T10:00:47.911Z,100905.09
2023-03-16T10:03:34.637Z,100953.72
2023-03-16T10:06:04.311Z,100959.63
2023-03-16T10:08:39.441Z,100960.50
2023-03-16T10:11:33.395Z,100965.66
2023-03-16T10:14:33.237Z,100966.56
2023-03-16T10:17:35.745Z,100971.53
2023-03-16T10:20:09.230Z,100975.75
2023-03-16T10:22:42.619Z,100983.16
2023-03-16T10:25:27.990Z,100987.25
2023-03-16T10:27:56.852Z,100981.09
2023-03-16T10:30:33.649Z,100987.78
2023-03-16T10:33:11.935Z,100984.22
2023-03-16T10:36:04.013Z,100989.19
2023-03-16T10:38:40.283Z,100990.66
2023-03-16T10:41:29.526Z,100994.13
2023-03-16T10:44:08.703Z,100994.28
2023-03-16T10:46:40.906Z,101001.97
2023-03-16T10:49:42.359Z,100999.47
2023-03-16T10:52:19.832Z,100996.25
2023-03-16T10:55:11.659Z,100999.81
2023-03-16T10:57:43.060Z,100996.47
2023-03-16T11:00:41.836Z,100998.25
2023-03-16T11:03:26.222Z,100997.53
2023-03-16T11:06:05.228Z,101007.13
2023-03-16T11:08:35.790Z,101002.91
2023-03-16T11:11:12.133Z,100998.56
2023-03-16T11:13:45.473Z,100991.94
2023-03-16T11:16:32.406Z,100991.09
2023-03-16T11:19:22.525Z,100986.16
2023-03-16T11:21:57.345Z,100991.47
2023-03-16T11:25:02.383Z,100999.31
2023-03-16T11:28:01.549Z,100991.47
2023-03-16T11:30:35.523Z,100994.41
2023-03-16T11:33:04.329Z,100998.13
2023-03-16T11:35:59.332Z,100995.75
2023-03-16T11:39:04.902Z,100992.47
2023-03-16T11:42:04.202Z,100994.09
2023-03-16T11:45:12.751Z,100989.91
2023-03-16T11:48:09.849Z,100986.63
2023-03-16T11:51:05.586Z,100987.28
2023-03-16T11:53:38.637Z,100986.16
2023-03-16T11:56:15.712Z,100987.53
2023-03-16T11:59:22.045Z,100997.31
2023-03-16T12:02:26.447Z,100995.16
2023-03-16T12:05:11.873Z,100991.44
2023-03-16T12:08:04.559Z,100994.47
2023-03-16T12:10:57.876Z,100997.69
2023-03-16T12:13:57.306Z,100999.94
2023-03-16T12:16:48.677Z,100991.91
2023-03-16T12:19:25.066Z,101006.38
2023-03-16T12:22:17.451Z,101002.22
2023-03-16T12:24:48.256Z,100997.25
2023-03-16T12:27:22.815Z,100998.28
2023-03-16T12:30:03.938Z,101000.06
2023-03-16T12:32:39.184Z,101001.25
2023-03-16T12:35:18.255Z,101004.72
2023-03-16T12:37:56.908Z,101009.78
2023-03-16T12:40:34.058Z,101007.97
2023-03-16T12:43:19.166Z,101006.16
2023-03-16T12:45:58.750Z,101013.66
2023-03-16T12:48:32.716Z,101017.75
2023-03-16T12:51:05.353Z,101021.09
2023-03-16T12:53:52.054Z,101032.91
2023-03-16T12:56:30.379Z,101034.56
2023-03-16T12:59:00.449Z,101028.78
2023-03-16T13:01:31.415Z,101025.69
2023-03-16T13:04:24.129Z,101027.88
2023-03-16T13:07:02.054Z,101028.34
2023-03-16T13:09:32.947Z,101021.06
2023-03-16T13:12:05.215Z,101031.41
2023-03-16T13:14:44.462Z,101029.50
2023-03-16T13:17:17.349Z,101027.50
2023-03-16T13:19:47.987Z,101030.78
2023-03-16T13:22:31.396Z,101032.47
2023-03-16T13:25:25.742Z,101034.41
2023-03-16T13:27:56.178Z,101034.84
2023-03-16T13:30:29.947Z,101039.22
2023-03-16T13:33:04.546Z,101044.22
2023-03-16T13:35:32.284Z,101055.16
2023-03-16T13:38:06.823Z,101049.97
2023-03-16T13:40:35.106Z,101044.66
2023-03-16T13:43:02.321Z,101049.91
2023-03-16T13:45:34.008Z,101060.25
2023-03-16T13:48:05.681Z,101058.72
2023-03-16T13:50:34.236Z,101058.97
2023-03-16T13:53:04.986Z,101052.38
2023-03-16T13:55:35.021Z,101053.16
2023-03-16T13:58:04.247Z,101049.50
2023-03-16T14:00:35.128Z,101055.38
2023-03-16T14:03:14.665Z,101058.59
2023-03-16T14:05:41.743Z,101050.59
2023-03-16T14:08:22.114Z,101065.19
2023-03-16T14:10:51.059Z,101061.69
2023-03-16T14:13:25.865Z,101066.81
2023-03-16T14:16:00.323Z,101062.50
2023-03-16T14:18:37.771Z,101070.34
2023-03-16T14:21:09.939Z,101062.03
2023-03-16T14:23:46.731Z,101061.34
2023-03-16T14:26:27.944Z,101068.44
2023-03-16T14:28:57.527Z,101065.81
2023-03-16T14:31:38.448Z,101065.63
2023-03-16T14:34:20.262Z,101067.31
2023-03-16T14:36:47.624Z,101060.38
2023-03-16T14:39:19.771Z,101062.09
2023-03-16T14:41:52.520Z,101062.94
2023-03-16T14:44:24.368Z,101055.19
2023-03-16T14:46:54.472Z,101058.66
2023-03-16T14:49:36.629Z,101048.38
2023-03-16T14:52:15.918Z,101052.00
2023-03-16T14:54:43.100Z,101055.44
2023-03-16T14:57:17.106Z,101052.00
2023-03-16T14:59:44.304Z,101047.75
2023-03-16T15:02:25.533Z,101045.41
2023-03-16T15:04:53.036Z,101039.47
2023-03-16T15:07:27.301Z,101033.38
2023-03-16T15:09:56.742Z,101041.91
2023-03-16T15:12:26.304Z,101039.28
2023-03-16T15:15:12.507Z,101043.50
2023-03-16T15:17:39.663Z,101043.31
2023-03-16T15:20:07.749Z,101036.28
2023-03-16T15:22:38.590Z,101039.72
2023-03-16T15:25:24.904Z,101037.22
2023-03-16T15:27:53.193Z,101036.38
2023-03-16T15:30:26.569Z,101029.44
2023-03-16T15:32:53.888Z,101047.72
2023-03-16T15:35:21.504Z,101043.38
2023-03-16T15:37:49.343Z,101049.31
2023-03-16T15:40:28.737Z,101047.47
2023-03-16T15:42:56.307Z,101049.97
2023-03-16T15:45:23.923Z,101030.91
2023-03-16T15:47:52.561Z,101044.53
2023-03-16T15:50:21.963Z,101050.53
2023-03-16T15:53:00.169Z,101054.78
2023-03-16T15:55:42.711Z,101054.72
2023-03-16T15:58:20.502Z,101058.06
2023-03-16T16:00:48.970Z,101052.75
2023-03-16T16:03:16.216Z,101061.31
2023-03-16T16:05:43.415Z,101063.03
2023-03-16T16:08:10.657Z,101059.47
2023-03-16T16:10:39.758Z,101061.22
2023-03-16T16:13:11.941Z,101069.72
2023-03-16T16:15:39.818Z,101066.28
2023-03-16T16:18:35.246Z,101067.94
2023-03-16T16:21:05.446Z,101071.16
2023-03-16T16:23:33.156Z,101076.28
2023-03-16T16:26:04.017Z,101075.31
2023-03-16T16:28:33.142Z,101077.78
2023-03-16T16:31:03.940Z,101077.72
2023-03-16T16:33:33.955Z,101075.91
2023-03-16T16:36:04.725Z,101080.97
2023-03-16T16:38:32.625Z,101080.88
2023-03-16T16:41:02.220Z,101086.75
2023-03-16T16:43:37.761Z,101087.41
2023-03-16T16:46:24.166Z,101090.44
2023-03-16T16:48:58.054Z,101093.63
2023-03-16T16:51:28.012Z,101097.44
2023-03-16T16:53:57.871Z,101091.00
2023-03-16T16:56:33.900Z,101092.44
2023-03-16T16:59:12.891Z,101091.06
2023-03-16T17:01:40.309Z,101095.75
2023-03-16T17:04:17.517Z,101096.25
2023-03-16T17:06:46.081Z,101113.06
2023-03-16T17:09:14.583Z,101114.41
2023-03-16T17:11:44.155Z,101109.75
2023-03-16T17:14:17.219Z,101114.47
2023-03-16T17:16:47.348Z,101118.38
2023-03-16T17:19:20.343Z,101118.94
2023-03-16T17:21:49.020Z,101123.84
2023-03-16T17:24:17.085Z,101121.22
2023-03-16T17:27:04.828Z,101124.50
2023-03-16T17:29:33.988Z,101129.53
2023-03-16T17:32:17.147Z,101130.31
2023-03-16T17:34:44.518Z,101117.22
2023-03-16T17:37:16.683Z,101121.47
2023-03-16T17:39:44.015Z,101122.81
2023-03-16T17:42:20.584Z,101135.59
2023-03-16T17:44:51.025Z,101133.66
2023-03-16T17:47:23.764Z,101132.53
2023-03-16T17:49:52.127Z,101133.91
2023-03-16T17:52:23.768Z,101138.09
2023-03-16T17:54:53.575Z,101143.56
2023-03-16T17:57:29.776Z,101154.56
2023-03-16T17:59:57.902Z,101130.06
2023-03-16T18:02:39.885Z,101146.44
2023-03-16T18:05:18.431Z,101142.00
2023-03-16T18:07:45.658Z,101149.41
2023-03-16T18:10:18.166Z,101149.13
2023-03-16T18:12:48.388Z,101154.75
2023-03-16T18:15:16.900Z,101157.38
2023-03-16T18:17:44.931Z,101154.75
2023-03-16T18:20:34.511Z,101153.03
2023-03-16T18:23:10.643Z,101158.00
2023-03-16T18:25:42.382Z,101163.00
2023-03-16T18:28:11.420Z,101154.41
2023-03-16T18:30:39.988Z,101161.25
2023-03-16T18:33:17.395Z,101156.75
2023-03-16T18:35:44.823Z,101160.06
2023-03-16T18:38:32.503Z,101164.19
2023-03-16T18:41:02.309Z,101162.88
2023-03-16T18:43:29.990Z,101159.38
2023-03-16T18:45:57.382Z,101157.38
2023-03-16T18:48:33.590Z,101160.75
2023-03-16T18:51:01.332Z,101161.50
2023-03-16T18:53:29.188Z,101153.47
2023-03-16T18:55:57.617Z,101172.31
2023-03-16T18:58:25.579Z,101162.84
2023-03-16T19:01:00.774Z,101166.34
2023-03-16T19:03:43.702Z,101162.84
2023-03-16T19:06:41.771Z,101150.41
2023-03-16T19:09:23.000Z,101163.97
2023-03-16T19:11:50.898Z,101160.59
2023-03-16T19:14:24.685Z,101171.47
2023-03-16T19:16:52.471Z,101175.50
2023-03-16T19:19:22.116Z,101170.41
2023-03-16T19:21:52.942Z,101166.09
2023-03-16T19:24:50.954Z,101164.91
2023-03-16T19:27:31.670Z,101166.25
2023-03-16T19:29:59.098Z,101179.53
2023-03-16T19:32:26.638Z,101184.34
2023-03-16T19:34:54.002Z,101189.31
2023-03-16T19:37:23.975Z,101192.81
2023-03-16T19:39:51.466Z,101192.94
2023-03-16T19:42:28.402Z,101203.13
2023-03-16T19:44:55.584Z,101196.16
2023-03-16T19:47:30.996Z,101198.84
2023-03-16T19:49:59.349Z,101193.47
2023-03-16T19:52:28.439Z,101192.25
2023-03-16T19:54:55.657Z,101183.25
2023-03-16T19:57:23.251Z,101183.13
2023-03-16T19:59:57.320Z,101180.66
2023-03-16T20:02:36.582Z,101185.75
2023-03-16T20:05:05.226Z,101193.31
2023-03-16T20:07:38.236Z,101191.72
2023-03-16T20:10:06.780Z,101195.06
2023-03-16T20:12:37.227Z,101192.44
2023-03-16T20:15:04.804Z,101190.63
2023-03-16T20:17:33.196Z,101186.47
2023-03-16T20:20:00.340Z,101195.81
2023-03-16T20:22:28.865Z,101183.00
2023-03-16T20:24:58.263Z,101169.44
2023-03-16T20:27:27.958Z,101167.72
2023-03-16T20:29:56.060Z,101174.13
2023-03-16T20:32:26.217Z,101168.09
2023-03-16T20:34:54.268Z,101165.41
2023-03-16T20:37:26.475Z,101168.91
2023-03-16T20:39:56.421Z,101169.72
2023-03-16T20:42:31.263Z,101167.00
2023-03-16T20:44:59.493Z,101149.72
2023-03-16T20:47:27.406Z,101167.41
2023-03-16T20:49:57.826Z,101166.59
2023-03-16T20:52:30.852Z,101150.09
2023-03-16T20:54:58.491Z,101171.81
2023-03-16T20:57:29.306Z,101171.69
2023-03-16T20:59:56.703Z,101173.41
2023-03-16T21:02:41.786Z,101171.78
2023-03-16T21:05:12.859Z,101174.44
2023-03-16T21:07:40.102Z,101154.75
2023-03-16T21:10:07.786Z,101158.44
2023-03-16T21:12:39.586Z,101169.72
2023-03-16T21:15:25.757Z,101163.69
2023-03-16T21:18:00.185Z,101165.13
2023-03-16T21:20:30.987Z,101169.38
2023-03-16T21:22:58.910Z,101158.44
2023-03-16T21:25:32.952Z,101163.41
2023-03-16T21:28:03.345Z,101159.91
2023-03-16T21:30:40.201Z,101150.47
2023-03-16T21:33:19.157Z,101157.09
2023-03-16T21:35:46.680Z,101158.31
2023-03-16T21:38:19.548Z,101161.78
2023-03-16T21:40:48.077Z,101167.59
2023-03-16T21:43:15.814Z,101170.22
2023-03-16T21:45:43.916Z,101166.00
2023-03-16T21:48:28.269Z,101170.22
2023-03-16T21:50:56.043Z,101176.19
2023-03-16T21:53:28.869Z,101168.50
2023-03-16T21:55:57.423Z,101169.16
2023-03-16T21:58:25.095Z,101178.50
2023-03-16T22:00:54.838Z,101178.50
2023-03-16T22:03:24.971Z,101180.88
2023-03-16T22:05:53.054Z,101171.41
2023-03-16T22:08:29.413Z,101175.91
2023-03-16T22:10:57.372Z,101173.41
2023-03-16T22:13:24.669Z,101176.06
2023-03-16T22:15:53.413Z,101182.13
2023-03-16T22:18:40.753Z,101146.56
2023-03-16T22:21:42.130Z,101180.47
2023-03-16T22:24:22.349Z,101178.94
2023-03-16T22:26:50.968Z,101180.53
2023-03-16T22:29:28.549Z,101180.69
2023-03-16T22:31:59.645Z,101188.41
2023-03-16T22:34:39.597Z,101188.31
2023-03-16T22:37:08.185Z,101187.38
2023-03-16T22:39:38.605Z,101197.72
2023-03-16T22:42:38.936Z,101196.91
2023-03-16T22:45:23.166Z,101184.81
2023-03-16T22:47:50.935Z,101187.47
2023-03-16T22:50:19.889Z,101182.28
2023-03-16T22:52:50.223Z,101179.09
2023-03-16T22:55:23.791Z,101185.78
2023-03-16T22:57:55.738Z,101189.41
2023-03-16T23:00:22.986Z,101196.41
2023-03-16T23:02:50.408Z,101194.78
2023-03-16T23:05:21.979Z,101194.91
2023-03-16T23:07:48.933Z,101186.34
2023-03-16T23:10:21.409Z,101194.91
2023-03-16T23:12:49.525Z,101199.84
2023-03-16T23:15:28.799Z,101204.09
2023-03-16T23:17:56.619Z,101198.63
2023-03-16T23:20:25.286Z,101205.63
2023-03-16T23:22:53.343Z,101203.88
2023-03-16T23:25:22.137Z,101199.44
2023-03-16T23:27:51.735Z,101187.31
2023-03-16T23:30:25.924Z,101182.00
2023-03-16T23:32:54.770Z,101178.50
2023-03-16T23:35:27.725Z,101178.59
2023-03-16T23:37:55.924Z,101178.38
2023-03-16T23:40:26.230Z,101165.50
2023-03-16T23:42:56.108Z,101175.03
2023-03-16T23:45:28.427Z,101176.63
2023-03-16T23:47:57.725Z,101172.41
2023-03-16T23:50:29.159Z,101158.16
2023-03-16T23:52:56.433Z,101173.59
2023-03-16T23:55:24.292Z,101178.69
2023-03-16T23:57:51.280Z,101161.50
